createdAt,value
2019-04-04T00:00:29.305Z,6.59
2019-04-04T00:01:00.703Z,6.57
2019-04-04T00:01:32.121Z,6.56
2019-04-04T00:02:03.486Z,6.55
2019-04-04T00:02:34.850Z,6.56
2019-04-04T00:03:06.164Z,6.57
2019-04-04T00:03:37.494Z,6.62
2019-04-04T00:04:08.773Z,6.73
2019-04-04T00:04:40.223Z,6.87
2019-04-04T00:05:11.567Z,6.99
2019-04-04T00:05:42.963Z,7.13
2019-04-04T00:06:14.302Z,7.29
2019-04-04T00:06:45.661Z,7.37
2019-04-04T00:07:16.986Z,7.41
2019-04-04T00:07:48.375Z,7.47
2019-04-04T00:08:19.720Z,7.57
2019-04-04T00:08:51.031Z,7.61
2019-04-04T00:09:22.446Z,7.60
2019-04-04T00:09:53.851Z,7.59
2019-04-04T00:10:27.696Z,7.54
2019-04-04T00:10:58.344Z,7.51
2019-04-04T00:11:29.716Z,7.40
2019-04-04T00:12:01.118Z,7.36
2019-04-04T00:12:32.445Z,7.36
2019-04-04T00:13:03.729Z,7.34
2019-04-04T00:13:35.171Z,7.31
2019-04-04T00:14:06.572Z,7.25
2019-04-04T00:14:37.993Z,7.22
2019-04-04T00:15:09.399Z,7.13
2019-04-04T00:15:40.784Z,7.12
2019-04-04T00:16:12.275Z,7.08
2019-04-04T00:16:46.803Z,7.06
2019-04-04T00:17:18.415Z,7.03
2019-04-04T00:17:49.787Z,7.01
2019-04-04T00:18:21.167Z,6.97
2019-04-04T00:18:52.675Z,6.94
2019-04-04T00:19:24.094Z,6.91
2019-04-04T00:19:55.544Z,6.88
2019-04-04T00:20:27.109Z,6.83
2019-04-04T00:21:02.535Z,6.79
2019-04-04T00:21:33.964Z,6.74
2019-04-04T00:22:05.944Z,6.69
2019-04-04T00:22:37.294Z,6.67
2019-04-04T00:23:08.685Z,6.73
2019-04-04T00:23:40.011Z,6.77
2019-04-04T00:24:11.329Z,6.82
2019-04-04T00:24:44.906Z,6.83
2019-04-04T00:25:16.284Z,6.82
2019-04-04T00:25:47.598Z,6.84
2019-04-04T00:26:19.058Z,6.85
2019-04-04T00:26:50.381Z,6.86
2019-04-04T00:27:21.720Z,6.89
2019-04-04T00:27:53.033Z,6.89
2019-04-04T00:28:24.377Z,6.88
2019-04-04T00:28:57.031Z,6.89
2019-04-04T00:29:32.086Z,7.02
2019-04-04T00:30:03.513Z,7.14
2019-04-04T00:30:34.940Z,7.30
2019-04-04T00:31:06.309Z,7.45
2019-04-04T00:31:37.583Z,7.65
2019-04-04T00:32:09.009Z,7.78
2019-04-04T00:32:40.473Z,7.82
2019-04-04T00:33:11.898Z,7.93
2019-04-04T00:33:43.292Z,8.02
2019-04-04T00:34:14.670Z,8.04
2019-04-04T00:34:48.086Z,8.06
2019-04-04T00:35:19.113Z,8.05
2019-04-04T00:35:50.530Z,8.06
2019-04-04T00:36:21.866Z,8.12
2019-04-04T00:36:53.336Z,8.16
2019-04-04T00:37:24.690Z,8.17
2019-04-04T00:37:55.986Z,8.24
2019-04-04T00:38:27.365Z,8.29
2019-04-04T00:38:58.822Z,8.35
2019-04-04T00:39:30.201Z,8.39
2019-04-04T00:40:01.658Z,8.39
2019-04-04T00:40:32.997Z,8.32
2019-04-04T00:41:04.382Z,8.26
2019-04-04T00:41:37.311Z,8.21
2019-04-04T00:42:08.641Z,8.14
2019-04-04T00:42:40.006Z,8.05
2019-04-04T00:43:11.349Z,7.97
2019-04-04T00:43:42.826Z,7.85
2019-04-04T00:44:14.158Z,7.77
2019-04-04T00:44:45.534Z,7.69
2019-04-04T00:45:16.969Z,7.58
2019-04-04T00:45:48.309Z,7.49
2019-04-04T00:46:19.732Z,7.39
2019-04-04T00:46:51.189Z,7.26
2019-04-04T00:47:24.200Z,7.14
2019-04-04T00:47:55.505Z,7.07
2019-04-04T00:48:26.761Z,6.99
2019-04-04T00:49:00.568Z,6.93
2019-04-04T00:49:31.884Z,6.83
2019-04-04T00:50:06.682Z,6.78
2019-04-04T00:50:38.145Z,6.72
2019-04-04T00:51:09.420Z,6.64
2019-04-04T00:51:40.909Z,6.61
2019-04-04T00:52:12.264Z,6.63
2019-04-04T00:52:43.494Z,6.65
2019-04-04T00:53:17.953Z,6.67
2019-04-04T00:53:49.221Z,6.69
2019-04-04T00:54:23.584Z,6.78
2019-04-04T00:54:54.893Z,6.82
2019-04-04T00:55:26.135Z,6.82
2019-04-04T00:55:57.391Z,6.79
2019-04-04T00:56:28.664Z,6.75
2019-04-04T00:56:59.976Z,6.72
2019-04-04T00:58:21.507Z,6.61
2019-04-04T00:58:52.834Z,6.53
2019-04-04T00:59:24.094Z,6.53
2019-04-04T00:59:55.389Z,6.55
2019-04-04T01:00:26.678Z,6.58
2019-04-04T01:00:57.893Z,6.58
2019-04-04T01:01:29.097Z,6.59
2019-04-04T01:02:00.390Z,6.60
2019-04-04T01:02:32.176Z,6.71
2019-04-04T01:03:03.654Z,6.82
2019-04-04T01:03:34.930Z,6.91
2019-04-04T01:04:06.282Z,7.01
2019-04-04T01:04:37.569Z,7.06
2019-04-04T01:05:08.868Z,7.06
2019-04-04T01:05:40.087Z,7.07
2019-04-04T01:06:11.372Z,7.05
2019-04-04T01:06:42.620Z,7.01
2019-04-04T01:07:13.933Z,6.95
2019-04-04T01:07:45.225Z,6.90
2019-04-04T01:08:16.553Z,6.86
2019-04-04T01:08:47.849Z,6.81
2019-04-04T01:09:22.080Z,6.72
2019-04-04T01:09:53.416Z,6.67
2019-04-04T01:10:24.669Z,6.60
2019-04-04T01:10:55.953Z,6.57
2019-04-04T01:11:27.217Z,6.55
2019-04-04T01:12:02.336Z,6.53
2019-04-04T01:12:36.187Z,6.54
2019-04-04T01:13:07.393Z,6.53
2019-04-04T01:13:38.705Z,6.53
2019-04-04T01:14:09.998Z,6.54
2019-04-04T01:14:41.307Z,6.55
2019-04-04T01:15:12.624Z,6.58
2019-04-04T01:15:43.888Z,6.61
2019-04-04T01:16:15.126Z,6.65
2019-04-04T01:16:46.373Z,6.66
2019-04-04T01:17:18.686Z,6.67
2019-04-04T01:17:49.976Z,6.70
2019-04-04T01:18:22.459Z,6.75
2019-04-04T01:18:53.816Z,6.74
2019-04-04T01:19:27.343Z,6.72
2019-04-04T01:19:58.605Z,6.70
2019-04-04T01:20:29.888Z,6.68
2019-04-04T01:21:01.245Z,6.64
2019-04-04T01:21:32.613Z,6.62
2019-04-04T01:22:03.878Z,6.60
2019-04-04T01:22:35.281Z,6.56
2019-04-04T01:23:06.550Z,6.51
2019-04-04T01:23:37.979Z,6.46
2019-04-04T01:24:09.213Z,6.42
2019-04-04T01:24:40.468Z,6.37
2019-04-04T01:25:11.798Z,6.33
2019-04-04T01:25:43.029Z,6.30
2019-04-04T01:26:14.348Z,6.32
2019-04-04T01:26:45.679Z,6.34
2019-04-04T01:27:16.941Z,6.36
2019-04-04T01:27:48.208Z,6.36
2019-04-04T01:28:20.572Z,6.33
2019-04-04T01:28:51.932Z,6.31
2019-04-04T01:29:23.222Z,6.29
2019-04-04T01:29:54.507Z,6.27
2019-04-04T01:30:25.754Z,6.23
2019-04-04T01:30:57.142Z,6.22
2019-04-04T01:31:28.403Z,6.18
2019-04-04T01:31:59.992Z,6.18
2019-04-04T01:32:31.265Z,6.13
2019-04-04T01:33:03.861Z,6.11
2019-04-04T01:33:37.702Z,6.09
2019-04-04T01:34:09.042Z,6.07
2019-04-04T01:34:40.294Z,6.08
2019-04-04T01:35:11.556Z,6.08
2019-04-04T01:35:42.800Z,6.09
2019-04-04T01:36:14.066Z,6.07
2019-04-04T01:36:45.431Z,6.06
2019-04-04T01:37:16.827Z,6.05
2019-04-04T01:37:48.040Z,6.05
2019-04-04T01:38:19.268Z,6.04
2019-04-04T01:38:51.660Z,6.00
2019-04-04T01:39:24.270Z,6.02
2019-04-04T01:39:55.546Z,6.01
2019-04-04T01:40:28.179Z,5.97
2019-04-04T01:40:59.453Z,5.96
2019-04-04T01:41:30.740Z,5.93
2019-04-04T01:42:02.023Z,5.90
2019-04-04T01:42:33.369Z,5.88
2019-04-04T01:43:04.699Z,5.85
2019-04-04T01:43:38.081Z,5.81
2019-04-04T01:44:11.358Z,5.78
2019-04-04T01:44:42.243Z,5.79
2019-04-04T01:45:17.028Z,5.79
2019-04-04T01:45:50.226Z,5.80
2019-04-04T01:46:21.470Z,5.80
2019-04-04T01:46:52.774Z,5.79
2019-04-04T01:47:24.039Z,5.79
2019-04-04T01:47:55.310Z,5.78
2019-04-04T01:48:26.639Z,5.80
2019-04-04T01:48:57.962Z,5.80
2019-04-04T01:49:29.221Z,5.78
2019-04-04T01:50:00.459Z,5.79
2019-04-04T01:50:31.752Z,5.83
2019-04-04T01:51:03.133Z,5.85
2019-04-04T01:51:34.376Z,5.86
2019-04-04T01:52:05.640Z,5.87
2019-04-04T01:52:37.818Z,5.91
2019-04-04T01:53:09.157Z,5.94
2019-04-04T01:53:42.140Z,5.97
2019-04-04T01:54:13.342Z,5.98
2019-04-04T01:54:44.644Z,5.98
2019-04-04T01:55:15.906Z,5.98
2019-04-04T01:55:47.911Z,5.96
2019-04-04T01:56:19.720Z,5.97
2019-04-04T01:56:50.949Z,6.04
2019-04-04T01:57:22.174Z,6.10
2019-04-04T01:57:53.530Z,6.11
2019-04-04T01:58:24.812Z,6.13
2019-04-04T01:58:56.247Z,6.15
2019-04-04T01:59:32.365Z,6.17
2019-04-04T02:00:03.301Z,6.17
2019-04-04T02:00:34.554Z,6.15
2019-04-04T02:01:07.183Z,6.13
2019-04-04T02:01:38.411Z,6.11
2019-04-04T02:02:09.743Z,6.14
2019-04-04T02:02:41.012Z,6.18
2019-04-04T02:03:12.252Z,6.22
2019-04-04T02:03:43.528Z,6.22
2019-04-04T02:04:14.893Z,6.26
2019-04-04T02:04:46.223Z,6.29
2019-04-04T02:05:17.507Z,6.32
2019-04-04T02:05:48.711Z,6.31
2019-04-04T02:06:19.937Z,6.32
2019-04-04T02:06:51.206Z,6.30
2019-04-04T02:07:22.654Z,6.28
2019-04-04T02:07:53.938Z,6.26
2019-04-04T02:08:25.400Z,6.25
2019-04-04T02:08:56.667Z,6.23
2019-04-04T02:09:27.931Z,6.21
2019-04-04T02:09:59.239Z,6.18
2019-04-04T02:10:30.588Z,6.20
2019-04-04T02:11:01.849Z,6.18
2019-04-04T02:11:33.100Z,6.16
2019-04-04T02:12:07.611Z,6.11
2019-04-04T02:12:39.198Z,6.09
2019-04-04T02:13:10.523Z,6.08
2019-04-04T02:13:41.814Z,6.05
2019-04-04T02:14:13.054Z,6.03
2019-04-04T02:14:44.420Z,6.03
2019-04-04T02:15:18.809Z,6.05
2019-04-04T02:15:49.997Z,6.03
2019-04-04T02:16:21.199Z,6.02
2019-04-04T02:16:55.488Z,6.01
2019-04-04T02:17:29.434Z,5.94
2019-04-04T02:18:00.715Z,5.91
2019-04-04T02:18:32.631Z,5.90
2019-04-04T02:19:03.909Z,5.86
2019-04-04T02:19:35.268Z,5.83
2019-04-04T02:20:06.497Z,5.80
2019-04-04T02:20:40.534Z,5.77
2019-04-04T02:21:11.849Z,5.73
2019-04-04T02:21:43.067Z,5.69
2019-04-04T02:22:14.412Z,5.67
2019-04-04T02:22:45.728Z,5.64
2019-04-04T02:23:16.973Z,5.63
2019-04-04T02:23:49.003Z,5.62
2019-04-04T02:24:21.997Z,5.62
2019-04-04T02:24:53.292Z,5.59
2019-04-04T02:25:24.935Z,5.57
2019-04-04T02:25:56.292Z,5.54
2019-04-04T02:26:30.471Z,5.53
2019-04-04T02:27:01.684Z,5.53
2019-04-04T02:27:32.915Z,5.51
2019-04-04T02:28:04.204Z,5.51
2019-04-04T02:28:35.534Z,5.46
2019-04-04T02:29:06.828Z,5.46
2019-04-04T02:29:41.829Z,5.44
2019-04-04T02:30:16.111Z,5.44
2019-04-04T02:30:48.475Z,5.46
2019-04-04T02:31:25.464Z,5.54
2019-04-04T02:31:56.820Z,5.63
2019-04-04T02:32:28.139Z,5.72
2019-04-04T02:33:00.393Z,5.78
2019-04-04T02:33:32.408Z,5.78
2019-04-04T02:34:06.198Z,5.79
2019-04-04T02:34:38.433Z,5.76
2019-04-04T02:35:10.648Z,5.75
2019-04-04T02:35:43.905Z,5.74
2019-04-04T02:36:16.667Z,5.74
2019-04-04T02:36:49.317Z,5.74
2019-04-04T02:37:23.863Z,5.74
2019-04-04T02:37:56.060Z,5.73
2019-04-04T02:38:28.271Z,5.70
2019-04-04T02:39:02.075Z,5.69
2019-04-04T02:39:35.075Z,5.70
2019-04-04T02:40:10.692Z,5.68
2019-04-04T02:40:42.191Z,5.67
2019-04-04T02:41:15.584Z,5.65
2019-04-04T02:41:48.457Z,5.64
2019-04-04T02:42:22.259Z,5.61
2019-04-04T02:42:55.281Z,5.61
2019-04-04T02:43:28.405Z,5.62
2019-04-04T02:43:59.726Z,5.58
2019-04-04T02:44:32.264Z,5.57
2019-04-04T02:45:05.650Z,5.55
2019-04-04T02:45:38.705Z,5.52
2019-04-04T02:46:11.469Z,5.52
2019-04-04T02:46:45.522Z,5.51
2019-04-04T02:47:18.255Z,5.50
2019-04-04T02:47:51.202Z,5.49
2019-04-04T02:48:25.063Z,5.49
2019-04-04T02:48:57.063Z,5.49
2019-04-04T02:49:29.572Z,5.49
2019-04-04T02:50:02.081Z,5.50
2019-04-04T02:50:35.672Z,5.52
2019-04-04T02:51:07.923Z,5.60
2019-04-04T02:51:41.084Z,5.66
2019-04-04T02:52:13.277Z,5.71
2019-04-04T02:52:46.192Z,5.82
2019-04-04T02:53:20.301Z,5.87
2019-04-04T02:53:52.941Z,5.92
2019-04-04T02:54:25.512Z,5.93
2019-04-04T02:54:58.292Z,5.92
2019-04-04T02:56:35.018Z,5.91
2019-04-04T02:57:08.234Z,5.90
2019-04-04T02:57:41.149Z,5.87
2019-04-04T02:58:13.989Z,5.85
2019-04-04T02:58:43.774Z,5.83
2019-04-04T02:59:20.244Z,5.93
2019-04-04T02:59:52.834Z,5.97
2019-04-04T03:00:26.286Z,6.01
2019-04-04T03:00:59.123Z,6.02
2019-04-04T03:01:31.644Z,6.02
2019-04-04T03:02:05.838Z,6.03
2019-04-04T03:02:37.104Z,6.01
2019-04-04T03:03:09.418Z,5.94
2019-04-04T03:03:43.779Z,5.94
2019-04-04T03:04:15.082Z,5.92
2019-04-04T03:04:47.195Z,5.95
2019-04-04T03:05:20.112Z,5.95
2019-04-04T03:05:52.303Z,5.93
2019-04-04T03:06:25.173Z,5.89
2019-04-04T03:06:58.530Z,5.90
2019-04-04T03:07:30.845Z,5.91
2019-04-04T03:08:04.158Z,5.91
2019-04-04T03:08:37.686Z,5.89
2019-04-04T03:09:09.963Z,5.88
2019-04-04T03:09:43.257Z,5.84
2019-04-04T03:10:16.523Z,5.83
2019-04-04T03:10:49.049Z,5.79
2019-04-04T03:11:22.001Z,5.76
2019-04-04T03:11:54.655Z,5.73
2019-04-04T03:12:26.937Z,5.70
2019-04-04T03:12:59.407Z,5.68
2019-04-04T03:13:32.148Z,5.68
2019-04-04T03:14:04.552Z,5.67
2019-04-04T03:14:37.338Z,5.66
2019-04-04T03:15:10.055Z,5.65
2019-04-04T03:15:47.418Z,5.62
2019-04-04T03:16:20.960Z,5.58
2019-04-04T03:16:50.310Z,5.55
2019-04-04T03:17:21.647Z,5.52
2019-04-04T03:17:52.889Z,5.45
2019-04-04T03:18:24.180Z,5.41
2019-04-04T03:18:55.470Z,5.39
2019-04-04T03:19:26.705Z,5.36
2019-04-04T03:19:58.031Z,5.30
2019-04-04T03:20:29.240Z,5.29
2019-04-04T03:21:00.571Z,5.27
2019-04-04T03:21:31.800Z,5.26
2019-04-04T03:22:05.090Z,5.26
2019-04-04T03:22:36.630Z,5.21
2019-04-04T03:23:07.982Z,5.19
2019-04-04T03:23:39.322Z,5.17
2019-04-04T03:24:10.621Z,5.14
2019-04-04T03:24:44.857Z,5.06
2019-04-04T03:25:15.717Z,5.03
2019-04-04T03:25:48.050Z,5.00
2019-04-04T03:26:20.567Z,4.98
2019-04-04T03:26:52.780Z,4.94
2019-04-04T03:27:26.901Z,4.92
2019-04-04T03:28:00.616Z,4.88
2019-04-04T03:28:32.477Z,4.85
2019-04-04T03:29:05.477Z,4.82
2019-04-04T03:29:37.736Z,4.79
2019-04-04T03:30:14.450Z,4.74
2019-04-04T03:30:42.517Z,4.72
2019-04-04T03:31:13.761Z,4.69
2019-04-04T03:31:45.116Z,4.66
2019-04-04T03:32:17.510Z,4.65
2019-04-04T03:32:53.883Z,4.64
2019-04-04T03:33:29.440Z,4.62
2019-04-04T03:33:54.862Z,4.61
2019-04-04T03:34:26.134Z,4.59
2019-04-04T03:34:59.585Z,4.60
2019-04-04T03:35:30.483Z,4.60
2019-04-04T03:36:04.300Z,4.61
2019-04-04T03:36:35.513Z,4.60
2019-04-04T03:37:12.309Z,4.59
2019-04-04T03:37:46.030Z,4.59
2019-04-04T03:38:15.762Z,4.58
2019-04-04T03:38:47.441Z,4.56
2019-04-04T03:39:19.598Z,4.56
2019-04-04T03:39:53.277Z,4.54
2019-04-04T03:40:25.774Z,4.53
2019-04-04T03:40:57.877Z,4.51
2019-04-04T03:41:35.884Z,4.47
2019-04-04T03:42:08.142Z,4.43
2019-04-04T03:42:38.446Z,4.37
2019-04-04T03:43:09.698Z,4.34
2019-04-04T03:43:41.041Z,4.32
2019-04-04T03:44:12.313Z,4.28
2019-04-04T03:44:44.544Z,4.28
2019-04-04T03:45:15.841Z,4.28
2019-04-04T03:45:48.565Z,4.28
2019-04-04T03:46:19.863Z,4.26
2019-04-04T03:46:51.172Z,4.25
2019-04-04T03:47:22.401Z,4.23
2019-04-04T03:47:53.632Z,4.24
2019-04-04T03:48:24.898Z,4.19
2019-04-04T03:48:56.156Z,4.19
2019-04-04T03:49:27.494Z,4.20
2019-04-04T03:49:58.785Z,4.20
2019-04-04T03:50:30.718Z,4.20
2019-04-04T03:51:04.821Z,4.22
2019-04-04T03:51:37.950Z,4.22
2019-04-04T03:52:11.247Z,4.23
2019-04-04T03:52:44.335Z,4.25
2019-04-04T03:53:16.655Z,4.25
2019-04-04T03:53:49.469Z,4.25
2019-04-04T03:54:22.635Z,4.24
2019-04-04T03:54:55.620Z,4.23
2019-04-04T03:55:27.855Z,4.24
2019-04-04T03:56:01.187Z,4.25
2019-04-04T03:56:38.739Z,4.22
2019-04-04T03:57:04.722Z,4.23
2019-04-04T03:57:35.956Z,4.21
2019-04-04T03:58:07.168Z,4.22
2019-04-04T03:58:38.754Z,4.21
2019-04-04T03:59:09.966Z,4.22
2019-04-04T03:59:41.207Z,4.23
2019-04-04T04:00:12.449Z,4.26
2019-04-04T04:00:46.851Z,4.28
2019-04-04T04:01:18.164Z,4.31
2019-04-04T04:01:49.433Z,4.30
2019-04-04T04:02:20.666Z,4.27
2019-04-04T04:02:53.079Z,4.25
2019-04-04T04:03:24.409Z,4.25
2019-04-04T04:03:55.898Z,4.27
2019-04-04T04:04:28.426Z,4.27
2019-04-04T04:05:01.009Z,4.28
2019-04-04T04:05:35.541Z,4.28
2019-04-04T04:06:08.690Z,4.30
2019-04-04T04:06:41.256Z,4.29
2019-04-04T04:07:14.208Z,4.30
2019-04-04T04:07:45.878Z,4.32
2019-04-04T04:08:20.964Z,4.33
2019-04-04T04:08:53.526Z,4.36
2019-04-04T04:09:26.019Z,4.38
2019-04-04T04:09:59.284Z,4.41
2019-04-04T04:10:33.977Z,4.43
2019-04-04T04:11:06.164Z,4.44
2019-04-04T04:11:38.300Z,4.45
2019-04-04T04:12:11.208Z,4.45
2019-04-04T04:12:43.832Z,4.45
2019-04-04T04:13:17.581Z,4.45
2019-04-04T04:13:49.860Z,4.45
2019-04-04T04:14:21.986Z,4.47
2019-04-04T04:14:55.072Z,4.47
2019-04-04T04:15:29.223Z,4.48
2019-04-04T04:16:02.659Z,4.50
2019-04-04T04:16:34.958Z,4.50
2019-04-04T04:17:13.134Z,4.51
2019-04-04T04:17:45.687Z,4.55
2019-04-04T04:18:20.238Z,4.55
2019-04-04T04:18:54.406Z,4.57
2019-04-04T04:19:24.559Z,4.57
2019-04-04T04:19:56.500Z,4.56
2019-04-04T04:20:27.785Z,4.59
2019-04-04T04:20:59.051Z,4.61
2019-04-04T04:21:30.690Z,4.63
2019-04-04T04:22:05.025Z,4.67
2019-04-04T04:22:36.310Z,4.71
2019-04-04T04:23:07.567Z,4.76
2019-04-04T04:23:38.845Z,4.82
2019-04-04T04:24:10.112Z,4.86
2019-04-04T04:24:41.314Z,4.90
2019-04-04T04:25:12.525Z,4.96
2019-04-04T04:25:43.758Z,5.00
2019-04-04T04:26:15.122Z,5.05
2019-04-04T04:26:46.403Z,5.08
2019-04-04T04:27:17.649Z,5.12
2019-04-04T04:27:48.945Z,5.12
2019-04-04T04:28:21.058Z,5.13
2019-04-04T04:28:53.503Z,5.15
2019-04-04T04:29:26.980Z,5.16
2019-04-04T04:30:00.131Z,5.17
2019-04-04T04:30:30.837Z,5.17
2019-04-04T04:31:02.032Z,5.16
2019-04-04T04:31:33.285Z,5.16
2019-04-04T04:32:04.526Z,5.15
2019-04-04T04:32:37.419Z,5.14
2019-04-04T04:33:08.845Z,5.13
2019-04-04T04:33:40.178Z,5.13
2019-04-04T04:34:11.452Z,5.14
2019-04-04T04:34:42.746Z,5.15
2019-04-04T04:35:13.976Z,5.16
2019-04-04T04:35:45.217Z,5.17
2019-04-04T04:36:16.707Z,5.16
2019-04-04T04:36:49.827Z,5.19
2019-04-04T04:37:21.230Z,5.20
2019-04-04T04:37:53.773Z,5.20
2019-04-04T04:38:26.743Z,5.17
2019-04-04T04:38:59.976Z,5.20
2019-04-04T04:39:36.097Z,5.12
2019-04-04T04:40:04.512Z,5.24
2019-04-04T04:40:38.649Z,5.27
2019-04-04T04:41:09.931Z,5.31
2019-04-04T04:41:43.237Z,5.41
2019-04-04T04:42:14.477Z,5.46
2019-04-04T04:42:45.732Z,5.55
2019-04-04T04:43:17.022Z,5.68
2019-04-04T04:43:48.324Z,5.83
2019-04-04T04:44:19.581Z,6.01
2019-04-04T04:44:50.807Z,6.17
2019-04-04T04:45:22.071Z,6.29
2019-04-04T04:45:53.445Z,6.42
2019-04-04T04:46:24.662Z,6.51
2019-04-04T04:46:55.892Z,6.61
2019-04-04T04:47:30.156Z,6.71
2019-04-04T04:48:01.427Z,6.79
2019-04-04T04:48:32.671Z,6.82
2019-04-04T04:49:04.314Z,6.81
2019-04-04T04:49:36.394Z,6.82
2019-04-04T04:50:09.626Z,6.82
2019-04-04T04:50:41.137Z,6.82
2019-04-04T04:51:12.799Z,6.82
2019-04-04T04:51:44.297Z,6.85
2019-04-04T04:52:15.586Z,6.87
2019-04-04T04:52:47.675Z,6.87
2019-04-04T04:53:19.656Z,6.89
2019-04-04T04:53:51.309Z,6.92
2019-04-04T04:54:23.436Z,6.95
2019-04-04T04:54:55.556Z,6.91
2019-04-04T04:55:28.073Z,6.85
2019-04-04T04:56:00.539Z,6.87
2019-04-04T04:56:32.116Z,6.90
2019-04-04T04:57:04.748Z,6.93
2019-04-04T04:57:38.327Z,6.94
2019-04-04T04:58:12.232Z,6.93
2019-04-04T04:58:43.494Z,6.86
2019-04-04T04:59:14.814Z,6.77
2019-04-04T04:59:46.160Z,6.72
2019-04-04T05:00:17.375Z,6.59
2019-04-04T05:00:48.620Z,6.50
2019-04-04T05:01:19.901Z,6.44
2019-04-04T05:01:51.359Z,6.37
2019-04-04T05:02:23.003Z,6.32
2019-04-04T05:02:54.216Z,6.27
2019-04-04T05:03:25.450Z,6.25
2019-04-04T05:03:57.254Z,6.23
2019-04-04T05:04:29.152Z,6.26
2019-04-04T05:05:02.216Z,6.28
2019-04-04T05:05:33.422Z,6.34
2019-04-04T05:06:04.656Z,6.41
2019-04-04T05:06:36.378Z,6.45
2019-04-04T05:07:08.151Z,6.54
2019-04-04T05:07:39.467Z,6.61
2019-04-04T05:08:10.824Z,6.76
2019-04-04T05:08:42.078Z,6.87
2019-04-04T05:09:14.055Z,6.95
2019-04-04T05:09:45.859Z,7.09
2019-04-04T05:10:17.189Z,7.20
2019-04-04T05:10:51.226Z,7.35
2019-04-04T05:11:25.343Z,7.48
2019-04-04T05:11:56.761Z,7.59
2019-04-04T05:12:28.025Z,7.66
2019-04-04T05:12:59.263Z,7.73
2019-04-04T05:13:30.525Z,7.81
2019-04-04T05:14:01.763Z,7.91
2019-04-04T05:14:33.019Z,8.02
2019-04-04T05:15:06.051Z,8.16
2019-04-04T05:15:37.273Z,8.23
2019-04-04T05:16:09.026Z,8.34
2019-04-04T05:16:40.294Z,8.41
2019-04-04T05:17:11.496Z,8.44
2019-04-04T05:17:42.745Z,8.50
2019-04-04T05:18:14.162Z,8.56
2019-04-04T05:18:48.129Z,8.66
2019-04-04T05:19:19.720Z,8.79
2019-04-04T05:19:50.959Z,8.92
2019-04-04T05:20:23.138Z,8.99
2019-04-04T05:20:57.416Z,9.05
2019-04-04T05:21:28.919Z,9.06
2019-04-04T05:22:00.271Z,8.93
2019-04-04T05:22:31.491Z,8.89
2019-04-04T05:23:02.716Z,8.96
2019-04-04T05:23:33.943Z,9.05
2019-04-04T05:24:05.201Z,9.09
2019-04-04T05:24:36.409Z,9.09
2019-04-04T05:25:08.919Z,9.11
2019-04-04T05:25:51.686Z,9.07
2019-04-04T05:26:13.358Z,9.13
2019-04-04T05:26:44.605Z,9.12
2019-04-04T05:27:15.916Z,9.19
2019-04-04T05:27:47.131Z,9.22
2019-04-04T05:28:18.376Z,9.27
2019-04-04T05:28:49.714Z,9.34
2019-04-04T05:29:23.963Z,9.39
2019-04-04T05:29:55.191Z,9.39
2019-04-04T05:30:26.460Z,9.29
2019-04-04T05:30:57.671Z,9.22
2019-04-04T05:31:28.970Z,9.14
2019-04-04T05:32:00.253Z,9.15
2019-04-04T05:32:31.596Z,9.17
2019-04-04T05:33:02.798Z,9.22
2019-04-04T05:33:34.025Z,9.29
2019-04-04T05:34:05.262Z,9.40
2019-04-04T05:34:36.598Z,9.44
2019-04-04T05:35:07.801Z,9.35
2019-04-04T05:35:41.042Z,9.22
2019-04-04T05:36:11.975Z,9.18
2019-04-04T05:36:43.328Z,9.20
2019-04-04T05:37:14.700Z,9.29
2019-04-04T05:37:45.931Z,9.34
2019-04-04T05:38:17.187Z,9.32
2019-04-04T05:38:48.419Z,9.21
2019-04-04T05:39:19.660Z,9.14
2019-04-04T05:39:55.214Z,9.14
2019-04-04T05:40:30.662Z,9.14
2019-04-04T05:41:01.527Z,9.11
2019-04-04T05:41:32.742Z,9.20
2019-04-04T05:42:04.344Z,9.20
2019-04-04T05:42:35.596Z,9.19
2019-04-04T05:43:07.031Z,9.14
2019-04-04T05:43:38.294Z,9.23
2019-04-04T05:44:10.357Z,9.30
2019-04-04T05:44:42.335Z,9.35
2019-04-04T05:45:14.456Z,9.43
2019-04-04T05:45:46.407Z,9.44
2019-04-04T05:46:18.970Z,9.47
2019-04-04T05:46:52.094Z,9.45
2019-04-04T05:47:23.879Z,9.51
2019-04-04T05:47:59.836Z,9.53
2019-04-04T05:48:31.143Z,9.52
2019-04-04T05:49:07.866Z,9.38
2019-04-04T05:49:38.148Z,9.36
2019-04-04T05:50:11.333Z,9.32
2019-04-04T05:50:44.313Z,9.28
2019-04-04T05:51:15.990Z,9.26
2019-04-04T05:51:48.457Z,9.19
2019-04-04T05:52:20.269Z,9.19
2019-04-04T05:52:53.264Z,9.15
2019-04-04T05:53:24.507Z,9.12
2019-04-04T05:53:55.863Z,9.09
2019-04-04T05:54:27.171Z,9.08
2019-04-04T05:54:58.445Z,9.09
2019-04-04T05:55:59.937Z,9.15
2019-04-04T05:56:31.808Z,9.19
2019-04-04T05:57:03.577Z,9.23
2019-04-04T05:57:36.201Z,9.30
2019-04-04T05:58:07.480Z,9.40
2019-04-04T05:58:38.742Z,9.52
2019-04-04T05:59:10.061Z,9.59
2019-04-04T05:59:42.457Z,9.55
2019-04-04T06:00:13.767Z,9.57
2019-04-04T06:00:45.070Z,9.66
2019-04-04T06:01:16.423Z,9.72
2019-04-04T06:01:47.693Z,9.79
2019-04-04T06:02:18.966Z,9.84
2019-04-04T06:02:52.034Z,9.87
2019-04-04T06:03:23.294Z,9.92
2019-04-04T06:03:54.548Z,10.00
2019-04-04T06:04:25.855Z,10.02
2019-04-04T06:04:57.083Z,10.03
2019-04-04T06:05:28.433Z,10.05
2019-04-04T06:06:01.349Z,10.12
2019-04-04T06:06:33.403Z,10.15
2019-04-04T06:07:05.441Z,10.16
2019-04-04T06:07:37.245Z,10.24
2019-04-04T06:08:10.570Z,10.24
2019-04-04T06:08:43.338Z,10.28
2019-04-04T06:09:14.887Z,10.34
2019-04-04T06:09:47.035Z,10.40
2019-04-04T06:10:21.251Z,10.44
2019-04-04T06:10:52.521Z,10.49
2019-04-04T06:11:23.893Z,10.57
2019-04-04T06:11:55.151Z,10.60
2019-04-04T06:12:26.337Z,10.59
2019-04-04T06:12:57.589Z,10.67
2019-04-04T06:13:30.577Z,10.78
2019-04-04T06:14:01.894Z,10.86
2019-04-04T06:14:33.179Z,10.92
2019-04-04T06:15:04.499Z,10.92
2019-04-04T06:15:35.883Z,10.92
2019-04-04T06:16:07.198Z,10.92
2019-04-04T06:16:38.407Z,10.88
2019-04-04T06:17:09.654Z,10.82
2019-04-04T06:17:40.889Z,10.80
2019-04-04T06:18:12.158Z,10.73
2019-04-04T06:18:43.625Z,10.72
2019-04-04T06:19:15.048Z,10.75
2019-04-04T06:19:46.296Z,10.79
2019-04-04T06:20:17.536Z,10.79
2019-04-04T06:20:49.088Z,10.71
2019-04-04T06:21:20.338Z,10.60
2019-04-04T06:21:51.550Z,10.59
2019-04-04T06:22:22.770Z,10.56
2019-04-04T06:22:54.103Z,10.48
2019-04-04T06:23:25.806Z,10.42
2019-04-04T06:23:57.040Z,10.40
2019-04-04T06:24:28.232Z,10.31
2019-04-04T06:24:59.983Z,10.25
2019-04-04T06:25:34.743Z,10.16
2019-04-04T06:26:07.465Z,10.13
2019-04-04T06:26:38.197Z,10.08
2019-04-04T06:27:10.095Z,10.08
2019-04-04T06:27:41.316Z,10.13
2019-04-04T06:28:12.703Z,10.21
2019-04-04T06:28:44.405Z,10.28
2019-04-04T06:29:17.339Z,10.36
2019-04-04T06:29:49.218Z,10.46
2019-04-04T06:30:20.792Z,10.57
2019-04-04T06:30:54.194Z,10.62
2019-04-04T06:31:26.898Z,10.68
2019-04-04T06:32:00.251Z,10.79
2019-04-04T06:32:31.155Z,10.89
2019-04-04T06:33:04.734Z,10.94
2019-04-04T06:33:36.339Z,10.90
2019-04-04T06:34:10.075Z,10.90
2019-04-04T06:34:42.192Z,10.91
2019-04-04T06:35:15.435Z,10.93
2019-04-04T06:35:47.857Z,10.95
2019-04-04T06:36:19.217Z,10.98
2019-04-04T06:36:50.473Z,11.03
2019-04-04T06:37:23.652Z,11.08
2019-04-04T06:37:54.662Z,11.11
2019-04-04T06:38:26.035Z,11.07
2019-04-04T06:38:57.339Z,11.01
2019-04-04T06:39:30.580Z,11.01
2019-04-04T06:40:01.590Z,11.05
2019-04-04T06:40:32.837Z,11.09
2019-04-04T06:41:04.078Z,11.15
2019-04-04T06:41:35.325Z,11.25
2019-04-04T06:42:06.506Z,11.32
2019-04-04T06:42:37.719Z,11.39
2019-04-04T06:43:11.521Z,11.43
2019-04-04T06:43:42.111Z,11.44
2019-04-04T06:44:13.714Z,11.46
2019-04-04T06:44:45.021Z,11.48
2019-04-04T06:45:16.257Z,11.48
2019-04-04T06:45:47.640Z,11.49
2019-04-04T06:46:22.503Z,11.47
2019-04-04T06:46:53.485Z,11.49
2019-04-04T06:47:25.526Z,11.54
2019-04-04T06:47:58.265Z,11.61
2019-04-04T06:48:33.480Z,11.57
2019-04-04T06:49:04.223Z,11.52
2019-04-04T06:49:38.301Z,11.46
2019-04-04T06:50:09.631Z,11.46
2019-04-04T06:50:43.127Z,11.45
2019-04-04T06:51:14.224Z,11.46
2019-04-04T06:51:47.202Z,11.50
2019-04-04T06:52:19.215Z,11.50
2019-04-04T06:52:51.174Z,11.30
2019-04-04T06:53:22.842Z,11.05
2019-04-04T06:53:54.556Z,10.95
2019-04-04T06:54:26.338Z,10.83
2019-04-04T06:54:58.046Z,10.84
2019-04-04T06:55:29.516Z,10.83
2019-04-04T06:56:01.101Z,10.77
2019-04-04T06:56:32.584Z,10.79
2019-04-04T06:57:04.769Z,10.83
2019-04-04T06:57:36.752Z,10.91
2019-04-04T06:58:09.641Z,10.97
2019-04-04T06:58:41.011Z,11.00
2019-04-04T06:59:12.515Z,11.07
2019-04-04T06:59:44.008Z,11.08
2019-04-04T07:00:15.912Z,11.14
2019-04-04T07:00:50.064Z,11.18
2019-04-04T07:01:21.867Z,11.30
2019-04-04T07:01:53.703Z,11.41
2019-04-04T07:02:24.988Z,11.44
2019-04-04T07:02:56.388Z,11.49
2019-04-04T07:03:28.133Z,11.62
2019-04-04T07:04:00.142Z,11.71
2019-04-04T07:04:34.223Z,11.81
2019-04-04T07:05:06.335Z,11.87
2019-04-04T07:05:38.861Z,11.90
2019-04-04T07:06:10.887Z,11.88